This is the latest recevied weather packets stored in our database for station/object AD8BW. If no packets are shown the sender has not sent any weather packets the latest 1 day(s).
| Time | Temp. | Humidity | Pressure | Rain* | Wind** | Luminosity | Snow |
|---|---|---|---|---|---|---|---|
| 1778091371 | 9.44° C | 52% | 1011.6 hPa | 0 mm | - | 141 W/m² | - |
| 1778089566 | 9.44° C | 55% | 1011.9 hPa | 0 mm | - | 153 W/m² | - |
| 1778088967 | 9.44° C | 57% | 1011.8 hPa | 0 mm | - | 287 W/m² | - |
| 1778087775 | 8.33° C | 59% | 1011.8 hPa | 0 mm | - | 91 W/m² | - |
| 1778084160 | 8.89° C | 57% | 1011.7 hPa | 0 mm | - | 213 W/m² | - |
| 1778082963 | 8.33° C | 58% | 1011.6 hPa | 0 mm | - | 176 W/m² | - |
| 1778082358 | 8.89° C | 58% | 1011.4 hPa | 0 mm | - | 283 W/m² | - |
| 1778081757 | 8.33° C | 61% | 1011.3 hPa | 0 mm | - | 262 W/m² | - |
| 1778075156 | 6.11° C | 65% | 1010.8 hPa | 0 mm | - | 107 W/m² | - |
| 1778073956 | 6.11° C | 66% | 1010.7 hPa | 0 mm | - | 83 W/m² | - |
| 1778072755 | 6.11° C | 68% | 1010.5 hPa | 0 mm | - | 237 W/m² | - |
| 1778069752 | 5° C | 74% | 1009.9 hPa | 0 mm | - | 72 W/m² | - |
| 1778068553 | 5° C | 74% | 1009.6 hPa | 0 mm | - | 93 W/m² | - |
| 1778067352 | 4.44° C | 73% | 1009.4 hPa | 0 mm | - | 35 W/m² | - |
| 1778066755 | 4.44° C | 73% | 1009.3 hPa | 0 mm | - | 42 W/m² | - |
| 1778065555 | 5° C | 71% | 1008.9 hPa | 0 mm | - | 12 W/m² | - |
| 1778064955 | 5° C | 70% | 1008.8 hPa | 0 mm | - | 14 W/m² | - |
| 1778064353 | 5° C | 70% | 1008.5 hPa | 0 mm | - | 9 W/m² | - |
| 1778063750 | 5.56° C | 69% | 1008.6 hPa | 0 mm | - | 0 W/m² | - |
| 1778062547 | 5.56° C | 67% | 1008.5 hPa | 0 mm | - | 0 W/m² | - |
| 1778060753 | 6.11° C | 71% | 1007.7 hPa | 0 mm | - | 0 W/m² | - |
| 1778060149 | 6.11° C | 70% | 1007.9 hPa | 0 mm | - | 0 W/m² | - |
| 1778059546 | 6.67° C | 74% | 1007.8 hPa | 0 mm | - | 0 W/m² | - |
| 1778058346 | 6.67° C | 76% | 1007.6 hPa | 0 mm | - | 0 W/m² | - |
| 1778057756 | 6.67° C | 75% | 1007.5 hPa | 0 mm | - | 0 W/m² | - |
* Rain latest hour (hover to see other rain measurements)
** Current wind speed in m/s (hover to see current wind gust speed)